Time;durP1;ratioP1;P1;durP2;ratioP2;P2;SDS_P1;SDS_P2;PMS_P1;PMS_P2;Temp;Humidity;BMP_temperature;BMP_pressure;BME280_temperature;BME280_humidity;BME280_pressure;Samples;Min_cycle;Max_cycle;Signal;HPM_P1;HPM_P2
2022/04/24 00:01:39;;;;;;;115.93;22.20;;;9.00;99.90;;;;;;4898793;29;20414;-87
2022/04/24 00:04:07;;;;;;;262.90;34.33;;;9.00;99.90;;;;;;4898836;29;20910;-86
2022/04/24 00:06:35;;;;;;;1531.05;123.47;;;8.90;99.90;;;;;;4899147;29;20494;-86
2022/04/24 00:09:03;;;;;;;974.90;135.63;;;8.70;99.90;;;;;;4917274;29;20477;-86
2022/04/24 00:11:31;;;;;;;774.28;81.85;;;8.70;99.90;;;;;;4917290;29;20410;-87
2022/04/24 00:13:59;;;;;;;858.75;127.80;;;8.70;99.90;;;;;;4933152;29;20390;-87
2022/04/24 00:16:26;;;;;;;470.30;56.35;;;8.70;99.90;;;;;;4917327;29;20806;-87
2022/04/24 00:18:54;;;;;;;816.05;91.13;;;8.80;99.90;;;;;;4917396;29;20396;-86
2022/04/24 00:21:22;;;;;;;856.47;118.28;;;8.80;99.90;;;;;;4916829;29;20398;-88
2022/04/24 00:23:49;;;;;;;966.47;168.90;;;8.70;99.90;;;;;;4916916;29;20394;-87
2022/04/24 00:26:17;;;;;;;1061.88;206.98;;;8.80;99.90;;;;;;4934122;29;20398;-85
2022/04/24 00:28:44;;;;;;;594.10;96.13;;;8.70;99.90;;;;;;4934230;29;20885;-87
2022/04/24 00:31:12;;;;;;;980.03;192.25;;;8.60;99.90;;;;;;4934141;29;20428;-86
2022/04/24 00:33:40;;;;;;;1268.78;136.18;;;8.70;99.90;;;;;;4917145;29;20991;-89
2022/04/24 00:36:08;;;;;;;929.55;90.88;;;8.70;99.90;;;;;;4916963;29;20406;-87
2022/04/24 00:38:36;;;;;;;773.03;123.53;;;8.70;99.90;;;;;;4934259;29;20401;-86
2022/04/24 00:41:04;;;;;;;996.15;156.10;;;8.70;99.90;;;;;;4934091;29;20398;-86
2022/04/24 00:43:32;;;;;;;590.47;61.20;;;8.70;99.90;;;;;;4917027;29;20429;-87
2022/04/24 00:46:42;;;;;;;1831.95;224.43;;;8.60;99.90;;;;;;4918367;29;20976;-88
2022/04/24 00:49:11;;;;;;;1094.00;174.90;;;8.40;99.90;;;;;;4932866;29;20397;-83
2022/04/24 00:51:40;;;;;;;834.10;128.43;;;8.30;99.90;;;;;;4934219;29;20417;-87
2022/04/24 00:54:10;;;;;;;948.97;129.13;;;8.40;99.90;;;;;;4916660;29;20457;-86
2022/04/24 00:56:40;;;;;;;909.67;102.63;;;8.40;99.90;;;;;;4936704;29;20398;-87
2022/04/24 00:59:11;;;;;;;757.47;91.78;;;8.20;99.90;;;;;;4920177;29;20430;-86
2022/04/24 01:01:40;;;;;;;554.30;51.83;;;8.40;99.90;;;;;;4937361;29;20461;-87
2022/04/24 01:04:11;;;;;;;782.72;139.15;;;8.40;99.90;;;;;;4937311;29;20935;-86
2022/04/24 01:06:42;;;;;;;1019.97;125.13;;;8.40;99.90;;;;;;4937300;29;20765;-86
2022/04/24 01:09:20;;;;;;;1263.23;127.53;;;8.50;99.90;;;;;;4937233;29;20401;-85
2022/04/24 01:11:53;;;;;;;869.22;130.25;;;8.30;99.90;;;;;;4937267;29;20433;-86
2022/04/24 01:14:23;;;;;;;713.15;81.60;;;8.30;99.90;;;;;;4939874;29;20408;-88
2022/04/24 01:16:52;;;;;;;585.05;98.68;;;8.30;99.90;;;;;;4920422;29;20401;-87
2022/04/24 01:19:20;;;;;;;1055.97;113.43;;;8.30;99.90;;;;;;4937077;29;20951;-88
2022/04/24 01:21:49;;;;;;;665.13;79.38;;;8.20;99.90;;;;;;4936890;29;20400;-88
2022/04/24 01:24:20;;;;;;;1068.10;144.40;;;8.10;99.90;;;;;;4919897;29;20805;-87
2022/04/24 01:26:49;;;;;;;650.95;76.38;;;8.10;99.90;;;;;;4920113;29;20461;-86
2022/04/24 01:29:17;;;;;;;1134.63;151.73;;;8.20;99.90;;;;;;4935830;29;20531;-88
2022/04/24 01:31:50;;;;;;;1814.80;168.18;;;8.10;99.90;;;;;;4919965;29;20429;-86
2022/04/24 01:34:19;;;;;;;787.37;98.77;;;7.90;99.90;;;;;;4919742;29;20398;-88
2022/04/24 01:36:47;;;;;;;998.08;137.13;;;8.00;99.90;;;;;;4919639;29;20416;-88
2022/04/24 01:39:15;;;;;;;704.90;94.07;;;8.00;99.90;;;;;;4919376;29;20566;-86
2022/04/24 01:41:44;;;;;;;769.80;95.20;;;8.10;99.90;;;;;;4935610;29;20486;-87
2022/04/24 01:44:13;;;;;;;560.67;53.05;;;8.10;99.90;;;;;;4936801;29;20409;-87
2022/04/24 01:46:40;;;;;;;812.47;118.95;;;8.00;99.90;;;;;;4917620;29;20406;-88
2022/04/24 01:49:08;;;;;;;1307.47;246.38;;;8.00;99.90;;;;;;4936493;29;20398;-87
2022/04/24 01:51:36;;;;;;;995.58;119.47;;;8.00;99.90;;;;;;4936259;29;20449;-83
2022/04/24 01:54:06;;;;;;;227.27;28.60;;;7.90;99.90;;;;;;4936258;29;20481;-85
2022/04/24 01:56:33;;;;;;;745.40;88.40;;;7.80;99.90;;;;;;4919463;29;20421;-86
2022/04/24 01:59:01;;;;;;;1122.50;136.45;;;7.90;99.90;;;;;;4900576;29;20403;-87
2022/04/24 02:01:28;;;;;;;709.65;80.68;;;7.80;99.90;;;;;;4904118;29;20391;-86
2022/04/24 02:03:56;;;;;;;1210.65;146.52;;;7.80;99.90;;;;;;4928148;29;20408;-86
2022/04/24 02:06:24;;;;;;;763.20;100.55;;;7.70;99.90;;;;;;4918414;29;20398;-87
2022/04/24 02:08:52;;;;;;;1231.35;143.15;;;7.80;99.90;;;;;;4918591;29;20397;-87
2022/04/24 02:11:22;;;;;;;880.25;109.50;;;7.50;99.90;;;;;;4934733;29;20821;-85
2022/04/24 02:13:50;;;;;;;1279.47;167.07;;;7.40;99.90;;;;;;4935888;29;20772;-86
2022/04/24 02:16:18;;;;;;;1538.72;174.52;;;7.40;99.90;;;;;;4919050;29;20402;-86
2022/04/24 02:18:46;;;;;;;1158.90;170.43;;;7.40;99.90;;;;;;4918579;29;20904;-85
2022/04/24 02:21:13;;;;;;;1218.65;144.35;;;7.50;99.90;;;;;;4918823;29;20818;-85
2022/04/24 02:23:41;;;;;;;737.55;91.00;;;7.60;99.90;;;;;;4935810;29;20429;-85
2022/04/24 02:26:09;;;;;;;843.13;107.35;;;7.70;99.90;;;;;;4903110;29;20398;-85
2022/04/24 02:28:37;;;;;;;813.95;172.65;;;7.70;99.90;;;;;;4918648;29;20806;-88
2022/04/24 02:31:05;;;;;;;1391.07;150.97;;;7.80;99.90;;;;;;4935785;29;20477;-86
2022/04/24 02:33:34;;;;;;;710.58;91.38;;;7.70;99.90;;;;;;4935425;29;20442;-86
2022/04/24 02:36:01;;;;;;;809.42;125.13;;;7.60;99.90;;;;;;4935578;29;20417;-86
2022/04/24 02:38:29;;;;;;;815.40;122.22;;;7.50;99.90;;;;;;4935469;29;20904;-85
2022/04/24 02:40:57;;;;;;;1031.10;179.93;;;7.40;99.90;;;;;;4918559;29;20390;-87
2022/04/24 02:43:24;;;;;;;820.60;99.90;;;7.50;99.90;;;;;;4918285;29;20406;-87
2022/04/24 02:45:52;;;;;;;688.53;106.00;;;7.50;99.90;;;;;;4935456;29;20401;-87
2022/04/24 02:48:22;;;;;;;1252.80;149.80;;;7.40;99.90;;;;;;4904940;29;20403;-84
2022/04/24 02:50:49;;;;;;;977.35;137.95;;;7.40;99.90;;;;;;4934115;29;20480;-85
2022/04/24 02:53:17;;;;;;;1506.93;155.53;;;7.40;99.90;;;;;;4935031;29;20820;-86
2022/04/24 02:55:44;;;;;;;997.55;110.90;;;7.40;99.90;;;;;;4935084;29;20485;-87
2022/04/24 02:58:12;;;;;;;1668.75;197.43;;;7.40;99.90;;;;;;4904493;29;20414;-86
2022/04/24 03:00:42;;;;;;;969.00;104.47;;;7.40;99.90;;;;;;4931664;29;20427;-86
2022/04/24 03:03:10;;;;;;;924.65;155.52;;;7.30;99.90;;;;;;4937179;29;20400;-87
2022/04/24 03:05:38;;;;;;;1486.50;182.48;;;7.30;99.90;;;;;;4932186;29;20463;-85
2022/04/24 03:08:06;;;;;;;891.15;126.20;;;7.30;99.90;;;;;;4935032;29;20456;-85
2022/04/24 03:10:35;;;;;;;561.45;80.38;;;7.20;99.90;;;;;;4917165;29;20493;-83
2022/04/24 03:13:03;;;;;;;553.00;70.65;;;7.30;99.90;;;;;;4926796;29;20767;-86
2022/04/24 03:15:30;;;;;;;740.92;76.57;;;7.30;99.90;;;;;;4906583;29;20865;-87
2022/04/24 03:17:59;;;;;;;594.42;84.43;;;7.30;99.90;;;;;;4934765;29;20481;-86
2022/04/24 03:20:26;;;;;;;299.13;49.28;;;7.30;99.90;;;;;;4917983;29;20480;-86
2022/04/24 03:22:54;;;;;;;1010.13;137.50;;;7.30;99.90;;;;;;4934881;29;20492;-86
2022/04/24 03:25:22;;;;;;;524.53;65.93;;;7.20;99.90;;;;;;4914715;29;20762;-87
2022/04/24 03:27:50;;;;;;;449.45;54.40;;;7.30;99.90;;;;;;4927984;29;20398;-85
2022/04/24 03:30:18;;;;;;;223.48;29.17;;;7.30;99.90;;;;;;4953615;29;20403;-86
2022/04/24 03:32:45;;;;;;;485.42;66.45;;;7.40;99.90;;;;;;4936015;29;20475;-85
2022/04/24 03:35:13;;;;;;;153.30;28.33;;;7.30;99.90;;;;;;4953428;29;20887;-84
2022/04/24 03:37:42;;;;;;;133.27;18.63;;;7.30;99.90;;;;;;4936732;29;20392;-87
2022/04/24 03:40:10;;;;;;;577.10;66.20;;;7.30;99.90;;;;;;4920446;29;20424;-85
2022/04/24 03:42:38;;;;;;;440.42;74.70;;;7.20;99.90;;;;;;4936555;29;20494;-87
2022/04/24 03:45:08;;;;;;;518.85;59.42;;;7.10;99.90;;;;;;4953458;29;20396;-85
2022/04/24 03:47:37;;;;;;;629.03;81.75;;;7.20;99.90;;;;;;4936390;29;20829;-86
2022/04/24 03:50:05;;;;;;;329.27;60.70;;;7.20;99.90;;;;;;4952764;29;20404;-87
2022/04/24 03:52:33;;;;;;;33.60;11.82;;;7.20;99.90;;;;;;4914189;29;20415;-86
2022/04/24 03:55:01;;;;;;;111.30;20.92;;;7.30;99.90;;;;;;4898226;29;20410;-85
2022/04/24 03:57:30;;;;;;;402.48;89.03;;;7.30;99.90;;;;;;4922857;29;20402;-85
2022/04/24 03:59:58;;;;;;;323.50;63.20;;;7.30;99.90;;;;;;4917184;29;20408;-86
2022/04/24 04:02:26;;;;;;;240.38;54.30;;;7.30;99.90;;;;;;4917303;29;20412;-86
2022/04/24 04:04:54;;;;;;;638.75;119.20;;;7.20;99.90;;;;;;4934427;29;20485;-85
2022/04/24 04:07:22;;;;;;;420.05;65.75;;;7.20;99.90;;;;;;4933218;29;20769;-85
2022/04/24 04:09:49;;;;;;;317.92;71.55;;;7.20;99.90;;;;;;4917147;29;20841;-85
2022/04/24 04:12:17;;;;;;;537.10;116.17;;;7.30;99.90;;;;;;4934379;29;20397;-84
2022/04/24 04:14:45;;;;;;;365.70;71.38;;;7.20;99.90;;;;;;4934437;29;20426;-85
2022/04/24 04:17:13;;;;;;;684.90;92.85;;;7.10;99.90;;;;;;4917392;29;20424;-86
2022/04/24 04:19:41;;;;;;;93.90;23.10;;;7.10;99.90;;;;;;4917134;29;20409;-86
2022/04/24 04:22:08;;;;;;;306.50;53.72;;;7.20;99.90;;;;;;4917159;29;20440;-86
2022/04/24 04:24:37;;;;;;;690.73;104.30;;;7.20;99.90;;;;;;4934264;29;20398;-87
2022/04/24 04:27:05;;;;;;;267.90;63.78;;;7.20;99.90;;;;;;4916971;29;20826;-87
2022/04/24 04:29:32;;;;;;;631.85;81.90;;;7.20;99.90;;;;;;4933162;29;20437;-86
2022/04/24 04:32:02;;;;;;;238.13;48.78;;;7.10;99.90;;;;;;4920508;29;20416;-86
2022/04/24 04:34:30;;;;;;;451.87;82.73;;;7.20;99.90;;;;;;4930754;29;20453;-84
2022/04/24 04:36:58;;;;;;;457.30;83.18;;;7.20;99.90;;;;;;4946300;29;20797;-86
2022/04/24 04:39:25;;;;;;;690.35;124.13;;;7.20;99.90;;;;;;4920472;29;20782;-85
2022/04/24 04:41:53;;;;;;;722.63;113.60;;;7.20;99.90;;;;;;4920370;29;20422;-86
2022/04/24 04:44:21;;;;;;;288.73;48.50;;;7.20;99.90;;;;;;4938548;29;20503;-86
2022/04/24 04:46:49;;;;;;;480.33;76.93;;;7.20;99.90;;;;;;4905078;29;20503;-85
2022/04/24 04:49:17;;;;;;;256.38;42.90;;;7.20;99.90;;;;;;4937739;29;20492;-87
2022/04/24 04:51:45;;;;;;;1053.30;156.67;;;7.20;99.90;;;;;;4920281;29;20398;-86
2022/04/24 04:54:12;;;;;;;58.58;10.20;;;7.30;99.90;;;;;;4937009;29;20466;-85
2022/04/24 04:56:40;;;;;;;329.25;50.78;;;7.20;99.90;;;;;;4937348;29;20433;-87
2022/04/24 04:59:08;;;;;;;211.35;32.47;;;7.20;99.90;;;;;;4919499;29;20418;-86
2022/04/24 05:01:35;;;;;;;395.13;81.40;;;7.20;99.90;;;;;;4945130;29;20479;-85
2022/04/24 05:04:03;;;;;;;333.20;62.10;;;7.30;99.90;;;;;;4956187;29;20422;-86
2022/04/24 05:06:32;;;;;;;514.70;86.23;;;7.20;99.90;;;;;;4955264;29;20413;-85
2022/04/24 05:08:59;;;;;;;64.23;9.37;;;7.20;99.90;;;;;;4937197;29;20448;-86
2022/04/24 05:11:27;;;;;;;1060.90;174.05;;;7.20;99.90;;;;;;4936978;29;20406;-85
2022/04/24 05:13:54;;;;;;;459.23;78.88;;;7.10;99.90;;;;;;4937091;29;20558;-86
2022/04/24 05:16:23;;;;;;;338.15;69.78;;;7.10;99.90;;;;;;4936984;29;20746;-84
2022/04/24 05:18:51;;;;;;;732.55;130.25;;;7.10;99.90;;;;;;4937045;29;20397;-87
2022/04/24 05:21:19;;;;;;;309.23;55.28;;;7.20;99.90;;;;;;4919774;29;20408;-87
2022/04/24 05:23:48;;;;;;;393.40;62.83;;;7.20;99.90;;;;;;4920011;29;20394;-86
2022/04/24 05:26:16;;;;;;;237.93;51.00;;;7.20;99.90;;;;;;4937086;29;20752;-87
2022/04/24 05:28:43;;;;;;;924.45;131.93;;;7.20;99.90;;;;;;4938766;29;20406;-86
2022/04/24 05:31:11;;;;;;;905.93;175.77;;;7.10;99.90;;;;;;4936818;29;20398;-87
2022/04/24 05:33:39;;;;;;;361.73;56.80;;;7.10;99.90;;;;;;4916743;29;20604;-88
2022/04/24 05:36:07;;;;;;;404.73;79.60;;;7.20;99.90;;;;;;4913009;29;20414;-85
2022/04/24 05:38:35;;;;;;;430.83;73.05;;;7.20;99.90;;;;;;4936036;29;20471;-86
2022/04/24 05:41:03;;;;;;;14.57;3.95;;;7.20;99.90;;;;;;4913014;29;20451;-87
2022/04/24 05:43:31;;;;;;;179.43;42.97;;;7.20;99.90;;;;;;4925185;29;20444;-85
2022/04/24 05:45:59;;;;;;;509.45;101.70;;;7.30;99.90;;;;;;4903432;29;20411;-87
2022/04/24 05:48:27;;;;;;;545.97;82.88;;;7.30;99.90;;;;;;4901010;29;20396;-87
2022/04/24 05:50:54;;;;;;;201.35;50.00;;;7.20;99.90;;;;;;4903270;29;20496;-87
2022/04/24 05:53:22;;;;;;;222.82;39.95;;;7.20;99.90;;;;;;4919114;29;20871;-87
2022/04/24 05:55:49;;;;;;;420.65;74.47;;;7.20;99.90;;;;;;4919124;29;20468;-87
2022/04/24 05:58:17;;;;;;;488.77;83.07;;;7.20;99.90;;;;;;4936294;29;20936;-86
2022/04/24 06:00:45;;;;;;;474.88;75.10;;;7.20;99.90;;;;;;4919400;29;20398;-86
2022/04/24 06:03:13;;;;;;;160.27;37.13;;;7.20;99.90;;;;;;4919327;29;20405;-85
2022/04/24 06:05:40;;;;;;;45.75;7.88;;;7.30;99.90;;;;;;4919264;29;20425;-85
2022/04/24 06:08:08;;;;;;;301.77;59.03;;;7.30;99.90;;;;;;4919204;29;20412;-87
2022/04/24 06:10:36;;;;;;;641.97;138.02;;;7.30;99.90;;;;;;4902465;29;20404;-86
2022/04/24 06:13:04;;;;;;;668.83;74.40;;;7.20;99.90;;;;;;4918722;29;20924;-87
2022/04/24 06:15:32;;;;;;;120.35;17.23;;;7.30;99.90;;;;;;4936027;29;20477;-90
2022/04/24 06:18:01;;;;;;;376.10;40.83;;;7.30;99.90;;;;;;4918976;29;20854;-87
2022/04/24 06:20:29;;;;;;;638.15;92.30;;;7.30;99.90;;;;;;4918673;29;20977;-85
2022/04/24 06:22:59;;;;;;;485.20;75.13;;;7.20;99.90;;;;;;4935824;29;20489;-86
2022/04/24 06:25:35;;;;;;;152.95;19.02;;;7.30;99.90;;;;;;4935840;29;20400;-87
2022/04/24 06:28:03;;;;;;;1165.78;134.25;;;7.20;99.90;;;;;;4918864;29;20392;-88
2022/04/24 06:30:32;;;;;;;232.98;29.52;;;7.30;99.90;;;;;;4918546;29;20429;-85
2022/04/24 06:33:03;;;;;;;620.97;75.75;;;7.30;99.90;;;;;;4935581;29;20924;-85
2022/04/24 06:35:31;;;;;;;66.43;7.30;;;7.30;99.90;;;;;;4918720;29;20880;-87
2022/04/24 06:37:59;;;;;;;206.15;29.00;;;7.30;99.90;;;;;;4935829;29;20404;-87
2022/04/24 06:40:27;;;;;;;96.33;16.50;;;7.40;99.90;;;;;;4903717;29;20408;-87
2022/04/24 06:43:01;;;;;;;288.65;38.25;;;7.40;99.90;;;;;;4935416;29;20394;-87
2022/04/24 06:45:33;;;;;;;205.30;31.15;;;7.40;99.90;;;;;;4935012;29;20409;-89
2022/04/24 06:48:05;;;;;;;1356.25;156.07;;;7.40;99.90;;;;;;4936903;29;20401;-86
2022/04/24 06:50:34;;;;;;;290.15;39.38;;;7.30;99.90;;;;;;4916639;29;20469;-86
2022/04/24 06:53:10;;;;;;;302.98;34.60;;;7.30;99.90;;;;;;4911720;29;20408;-87
2022/04/24 06:55:41;;;;;;;440.23;60.10;;;7.30;99.90;;;;;;4899706;29;20419;-88
2022/04/24 06:58:12;;;;;;;907.10;133.87;;;7.40;99.90;;;;;;4927858;29;20400;-85
2022/04/24 07:00:42;;;;;;;463.48;58.30;;;7.40;99.90;;;;;;4934074;29;20401;-85
2022/04/24 07:03:31;;;;;;;586.83;77.15;;;7.40;99.90;;;;;;4933240;29;20418;-87
2022/04/24 07:06:00;;;;;;;545.67;105.43;;;7.40;99.90;;;;;;4932974;29;20450;-87
2022/04/24 07:08:32;;;;;;;90.68;8.48;;;7.30;99.90;;;;;;4918065;29;20398;-86
2022/04/24 07:11:00;;;;;;;34.70;4.72;;;7.40;99.90;;;;;;4927640;29;20408;-86
2022/04/24 07:13:28;;;;;;;248.40;29.88;;;7.40;99.90;;;;;;4915825;29;20423;-86
2022/04/24 07:15:56;;;;;;;379.77;39.67;;;7.40;99.90;;;;;;4913727;29;20433;-87
2022/04/24 07:18:24;;;;;;;194.68;26.70;;;7.40;99.90;;;;;;4897146;29;20413;-86
2022/04/24 07:20:55;;;;;;;866.17;122.68;;;7.40;99.90;;;;;;4907748;29;20739;-86
2022/04/24 07:23:23;;;;;;;3.22;1.60;;;7.40;99.90;;;;;;4897275;29;20417;-86
2022/04/24 07:25:52;;;;;;;119.75;17.02;;;7.40;99.90;;;;;;4916226;29;20413;-86
2022/04/24 07:28:22;;;;;;;44.08;5.13;;;7.40;99.90;;;;;;4884519;29;20419;-87
2022/04/24 07:30:51;;;;;;;314.73;51.05;;;7.50;99.90;;;;;;4902881;29;20420;-88
2022/04/24 07:33:19;;;;;;;451.88;66.35;;;7.50;99.90;;;;;;4894537;29;20780;-88
2022/04/24 07:35:46;;;;;;;870.78;110.05;;;7.50;99.90;;;;;;4929536;29;20915;-87
2022/04/24 07:38:14;;;;;;;391.20;58.35;;;7.50;99.90;;;;;;4910098;29;20391;-88
2022/04/24 07:40:42;;;;;;;379.97;47.20;;;7.50;99.90;;;;;;4915821;29;20399;-87
2022/04/24 07:43:13;;;;;;;635.00;108.63;;;7.50;99.90;;;;;;4914347;29;20427;-85
2022/04/24 07:45:43;;;;;;;739.05;72.75;;;7.50;99.90;;;;;;4914988;29;20426;-87
2022/04/24 07:48:13;;;;;;;456.05;50.47;;;7.60;99.90;;;;;;4914525;29;20395;-87
2022/04/24 07:50:44;;;;;;;566.27;106.93;;;7.60;99.90;;;;;;4912324;29;20465;-87
2022/04/24 07:53:13;;;;;;;22.67;2.63;;;7.60;99.90;;;;;;4919425;29;20398;-88
2022/04/24 07:55:42;;;;;;;67.82;5.43;;;7.60;99.90;;;;;;4933036;29;20402;-87
2022/04/24 07:58:11;;;;;;;290.33;33.63;;;7.60;99.90;;;;;;4932973;29;20678;-87
2022/04/24 08:00:40;;;;;;;8.15;2.13;;;7.60;99.90;;;;;;4932939;29;20402;-87
2022/04/24 08:03:10;;;;;;;621.50;70.07;;;7.60;99.90;;;;;;4933215;29;20477;-87
2022/04/24 08:05:41;;;;;;;200.75;31.13;;;7.60;99.90;;;;;;4934378;29;20409;-88
2022/04/24 08:08:21;;;;;;;372.58;65.72;;;7.60;99.90;;;;;;4936931;29;20441;-87
2022/04/24 08:10:51;;;;;;;357.58;50.47;;;7.70;99.90;;;;;;4936696;29;20405;-88
2022/04/24 08:13:20;;;;;;;37.53;3.92;;;7.70;99.90;;;;;;4921053;29;20490;-87
2022/04/24 08:15:48;;;;;;;478.75;63.30;;;7.70;99.90;;;;;;4935457;29;20947;-87
2022/04/24 08:18:18;;;;;;;87.78;9.90;;;7.70;99.90;;;;;;4920774;29;20405;-88
2022/04/24 08:20:46;;;;;;;232.13;30.80;;;7.70;99.90;;;;;;4916465;29;20440;-88
2022/04/24 08:23:16;;;;;;;732.30;106.57;;;7.80;99.90;;;;;;4917980;29;20513;-87
2022/04/24 08:25:44;;;;;;;491.15;85.72;;;7.80;99.90;;;;;;4917795;29;20395;-89
2022/04/24 08:28:13;;;;;;;252.88;39.28;;;7.70;99.90;;;;;;4916832;29;20415;-87
2022/04/24 08:30:46;;;;;;;409.65;53.58;;;7.80;99.90;;;;;;4918359;29;20455;-85
2022/04/24 08:33:15;;;;;;;270.45;41.00;;;7.80;99.90;;;;;;4900770;29;20492;-88
2022/04/24 08:35:45;;;;;;;127.85;14.10;;;7.70;99.90;;;;;;4897790;29;20543;-87
2022/04/24 08:38:13;;;;;;;787.05;108.38;;;7.80;99.90;;;;;;4909809;29;20479;-86
2022/04/24 08:40:41;;;;;;;72.97;11.27;;;7.80;99.90;;;;;;4909494;29;20502;-88
2022/04/24 08:43:08;;;;;;;66.53;6.10;;;7.80;99.90;;;;;;4916780;29;20405;-87
2022/04/24 08:45:40;;;;;;;2.42;1.52;;;7.90;99.90;;;;;;4916833;29;20395;-89
2022/04/24 08:48:09;;;;;;;189.97;29.20;;;7.90;99.90;;;;;;4919230;29;20403;-87
2022/04/24 08:50:37;;;;;;;41.00;5.90;;;8.00;99.90;;;;;;4917134;29;20498;-89
2022/04/24 08:53:08;;;;;;;484.05;66.22;;;8.00;99.90;;;;;;4932995;29;20407;-87
2022/04/24 08:55:37;;;;;;;218.30;27.50;;;7.90;99.90;;;;;;4903489;29;20484;-88
2022/04/24 08:58:06;;;;;;;460.88;75.32;;;7.90;99.90;;;;;;4926500;29;20402;-85
2022/04/24 09:00:34;;;;;;;411.80;53.13;;;7.90;99.90;;;;;;4931576;29;20402;-87
2022/04/24 09:03:02;;;;;;;7.00;2.08;;;7.90;99.90;;;;;;4921633;29;20400;-88
2022/04/24 09:05:31;;;;;;;70.50;9.68;;;7.90;99.90;;;;;;4924136;29;20413;-87
2022/04/24 09:08:11;;;;;;;51.75;5.53;;;7.90;99.90;;;;;;4908345;29;20583;-88
2022/04/24 09:10:59;;;;;;;184.38;23.73;;;7.90;99.90;;;;;;4950277;29;20410;-88
2022/04/24 09:13:30;;;;;;;497.98;60.35;;;8.00;99.90;;;;;;4924814;29;20413;-86
2022/04/24 09:16:00;;;;;;;31.27;4.35;;;8.00;99.90;;;;;;4896824;29;20761;-90
2022/04/24 09:18:39;;;;;;;372.77;50.40;;;8.00;99.90;;;;;;4897699;29;20780;-86
2022/04/24 09:21:12;;;;;;;814.35;112.60;;;8.00;99.90;;;;;;4897085;29;20400;-89
2022/04/24 09:23:44;;;;;;;2.88;1.40;;;8.00;99.90;;;;;;4897004;29;20480;-89
2022/04/24 09:26:16;;;;;;;75.13;6.95;;;8.00;99.90;;;;;;4922413;29;20400;-88
2022/04/24 09:28:45;;;;;;;237.95;44.88;;;8.00;99.90;;;;;;4914361;29;20467;-87
2022/04/24 09:31:13;;;;;;;265.15;37.03;;;8.10;99.90;;;;;;4924161;29;20397;-89
2022/04/24 09:33:42;;;;;;;145.02;24.02;;;8.10;99.90;;;;;;4906675;29;20894;-88
2022/04/24 09:36:13;;;;;;;260.52;42.45;;;8.10;99.90;;;;;;4915315;29;20399;-87
2022/04/24 09:38:43;;;;;;;96.70;11.45;;;8.10;99.90;;;;;;4915020;29;20491;-88
2022/04/24 09:41:22;;;;;;;376.73;58.03;;;8.20;99.90;;;;;;4915200;29;20399;-87
2022/04/24 09:43:51;;;;;;;193.68;29.80;;;8.20;99.90;;;;;;4907724;29;20419;-88
2022/04/24 09:46:29;;;;;;;4.15;1.15;;;8.30;99.90;;;;;;4915109;29;20403;-84
2022/04/24 09:49:01;;;;;;;384.02;64.75;;;8.20;99.90;;;;;;4916389;29;20426;-88
2022/04/24 09:51:29;;;;;;;228.95;35.80;;;8.30;99.90;;;;;;4909349;29;20406;-88
2022/04/24 09:54:02;;;;;;;174.90;24.92;;;8.30;99.90;;;;;;4908472;29;20890;-88
2022/04/24 09:56:46;;;;;;;369.67;62.27;;;8.30;99.90;;;;;;5123947;27;20880;-88
2022/04/24 09:59:14;;;;;;;179.07;37.25;;;8.30;99.90;;;;;;5090544;28;20416;-88
2022/04/24 10:01:42;;;;;;;67.97;8.43;;;8.40;99.90;;;;;;5097489;28;20376;-87
2022/04/24 10:04:10;;;;;;;99.28;13.60;;;8.40;99.90;;;;;;5095105;28;20394;-84
2022/04/24 10:06:40;;;;;;;272.02;56.30;;;8.40;99.90;;;;;;5101895;28;20480;-88
2022/04/24 10:09:11;;;;;;;48.83;5.70;;;8.40;99.90;;;;;;5089540;28;20389;-86
2022/04/24 10:11:39;;;;;;;266.83;40.88;;;8.40;99.90;;;;;;5089091;28;20935;-88
2022/04/24 10:14:12;;;;;;;367.48;31.48;;;8.40;99.90;;;;;;5088060;28;20388;-87
2022/04/24 10:16:59;;;;;;;138.40;25.02;;;8.50;99.90;;;;;;5089462;28;20405;-87
2022/04/24 10:19:40;;;;;;;646.97;93.47;;;8.50;99.90;;;;;;5089064;28;20489;-88
2022/04/24 10:22:16;;;;;;;27.23;3.88;;;8.50;99.90;;;;;;5097250;28;20389;-88
2022/04/24 10:24:45;;;;;;;226.73;35.90;;;8.50;99.90;;;;;;5105741;28;20832;-88
2022/04/24 10:27:13;;;;;;;530.90;64.00;;;8.60;99.90;;;;;;5107830;28;20379;-87
2022/04/24 10:30:00;;;;;;;561.00;87.28;;;8.60;99.90;;;;;;5108937;28;20742;-86
2022/04/24 10:32:33;;;;;;;248.57;47.20;;;8.60;99.90;;;;;;5104599;28;20385;-88
2022/04/24 10:35:01;;;;;;;226.57;25.88;;;8.60;99.90;;;;;;5087696;28;20397;-88
2022/04/24 10:37:31;;;;;;;128.70;23.73;;;8.60;99.90;;;;;;5088650;28;20385;-87
2022/04/24 10:40:01;;;;;;;132.93;11.77;;;8.50;99.90;;;;;;5089091;28;20872;-86
2022/04/24 10:42:30;;;;;;;74.40;8.17;;;8.60;99.90;;;;;;5088488;28;20435;-86
2022/04/24 10:45:20;;;;;;;105.68;14.27;;;8.60;99.90;;;;;;5109062;28;20376;-87
2022/04/24 10:47:52;;;;;;;112.63;15.98;;;8.60;99.90;;;;;;5097840;28;20389;-87
2022/04/24 10:50:22;;;;;;;43.03;8.10;;;8.60;99.90;;;;;;5087409;28;20389;-88
2022/04/24 10:52:55;;;;;;;547.28;54.58;;;8.70;99.90;;;;;;5087423;28;20924;-89
2022/04/24 10:55:26;;;;;;;202.50;27.60;;;8.70;99.90;;;;;;5086748;28;20938;-87
2022/04/24 10:57:59;;;;;;;23.45;3.90;;;8.70;99.90;;;;;;5087228;28;20386;-88
2022/04/24 11:00:34;;;;;;;17.08;2.25;;;8.70;99.90;;;;;;5083076;28;20401;-87
2022/04/24 11:03:07;;;;;;;390.30;50.08;;;8.70;99.90;;;;;;5090992;28;20396;-88
2022/04/24 11:05:38;;;;;;;331.52;41.58;;;8.80;99.90;;;;;;5107048;28;20927;-87
2022/04/24 11:08:07;;;;;;;236.45;34.13;;;8.70;99.90;;;;;;5090577;28;20400;-87
2022/04/24 11:10:42;;;;;;;354.88;39.22;;;8.70;99.90;;;;;;5085747;28;20496;-87
2022/04/24 11:13:19;;;;;;;224.83;29.50;;;8.70;99.90;;;;;;5093401;28;20747;-86
2022/04/24 11:15:48;;;;;;;199.85;23.52;;;8.70;99.90;;;;;;5076599;28;20400;-88
2022/04/24 11:18:17;;;;;;;83.32;10.85;;;8.70;99.90;;;;;;5094562;28;20859;-87
2022/04/24 11:21:01;;;;;;;336.45;35.17;;;8.70;99.90;;;;;;5093361;28;20483;-86
2022/04/24 11:23:37;;;;;;;261.50;37.08;;;8.70;99.90;;;;;;5094319;28;20385;-87
2022/04/24 11:26:09;;;;;;;586.55;78.00;;;8.70;99.90;;;;;;5093022;28;20893;-88
2022/04/24 11:28:41;;;;;;;141.70;21.02;;;8.70;99.90;;;;;;5077189;28;20418;-88
2022/04/24 11:31:19;;;;;;;162.55;22.10;;;8.70;99.90;;;;;;5073079;28;20410;-89
2022/04/24 11:33:59;;;;;;;3.60;1.60;;;8.70;99.90;;;;;;5073295;28;20860;-87
2022/04/24 11:36:33;;;;;;;324.83;40.53;;;8.70;99.90;;;;;;5069086;28;20406;-88
2022/04/24 11:39:04;;;;;;;9.83;2.07;;;8.70;99.90;;;;;;5073555;28;20378;-88
2022/04/24 11:41:35;;;;;;;430.52;62.55;;;8.70;99.90;;;;;;5073375;28;20382;-89
2022/04/24 11:50:14;;;;;;;309.05;72.25;;;8.70;99.90;;;;;;5078481;28;20431;-91
2022/04/24 11:53:02;;;;;;;254.97;43.27;;;8.70;99.90;;;;;;5093778;28;20395;-89
2022/04/24 11:58:21;;;;;;;393.92;117.13;;;8.70;99.90;;;;;;5092641;28;20885;-89
2022/04/24 12:00:48;;;;;;;2.20;1.30;;;8.60;99.90;;;;;;5090629;28;20391;-89
2022/04/24 12:03:17;;;;;;;16.15;1.88;;;8.70;99.90;;;;;;5082682;28;20760;-88
2022/04/24 12:05:57;;;;;;;8.85;1.58;;;8.80;99.90;;;;;;5074084;28;20386;-89
2022/04/24 12:08:26;;;;;;;2.60;1.30;;;8.80;99.90;;;;;;5088774;28;20809;-91
2022/04/24 12:10:53;;;;;;;57.70;5.95;;;8.80;99.90;;;;;;5092113;28;20383;-90
2022/04/24 12:13:22;;;;;;;355.40;70.10;;;8.70;99.90;;;;;;5091761;28;20385;-89
2022/04/24 12:15:52;;;;;;;0.95;0.90;;;8.80;99.90;;;;;;5091250;28;20400;-90
2022/04/24 12:18:22;;;;;;;123.40;22.70;;;8.80;99.90;;;;;;5072492;28;20382;-89
2022/04/24 12:20:50;;;;;;;94.13;15.60;;;8.80;99.90;;;;;;5072164;28;20390;-89
2022/04/24 12:23:19;;;;;;;92.82;14.18;;;8.80;99.90;;;;;;5071013;28;20395;-90
2022/04/24 12:25:48;;;;;;;76.63;16.10;;;8.80;99.90;;;;;;5082194;28;20390;-90
2022/04/24 12:28:35;;;;;;;602.15;109.97;;;8.80;99.90;;;;;;5107656;27;20981;-88
2022/04/24 12:31:05;;;;;;;1.35;1.00;;;8.90;99.90;;;;;;5076572;28;20409;-90
2022/04/24 12:33:46;;;;;;;392.60;67.53;;;9.00;99.90;;;;;;5080180;28;20448;-89
2022/04/24 12:36:15;;;;;;;7.05;1.42;;;9.00;99.90;;;;;;5080991;28;20426;-90
2022/04/24 12:39:06;;;;;;;1.10;0.90;;;9.10;99.90;;;;;;5085756;28;20952;-89
2022/04/24 12:41:37;;;;;;;208.47;36.90;;;9.10;99.90;;;;;;5083762;28;20402;-89
2022/04/24 12:44:07;;;;;;;21.85;2.00;;;9.20;99.90;;;;;;5083291;28;20479;-88
2022/04/24 12:46:35;;;;;;;2.80;0.80;;;9.20;99.90;;;;;;5079648;28;20416;-87
2022/04/24 12:49:04;;;;;;;425.50;85.80;;;9.20;99.90;;;;;;5055395;28;20772;-87
2022/04/24 12:51:32;;;;;;;463.02;94.97;;;9.20;99.90;;;;;;5074798;28;20431;-88